Time;durP1;ratioP1;P1;durP2;ratioP2;P2;SDS_P1;SDS_P2;PMS_P1;PMS_P2;Temp;Humidity;BMP_temperature;BMP_pressure;BME280_temperature;BME280_humidity;BME280_pressure;Samples;Min_cycle;Max_cycle;Signal;HPM_P1;HPM_P2
2021/06/03 00:02:13;;;;;;;0.90;0.70;;;18.80;99.90;;;;;;5091458;28;20032;-63
2021/06/03 00:04:40;;;;;;;0.70;0.60;;;18.90;99.90;;;;;;5108740;28;20032;-63
2021/06/03 00:07:05;;;;;;;0.73;0.73;;;18.80;99.90;;;;;;5096924;28;20024;-63
2021/06/03 00:09:32;;;;;;;0.80;0.77;;;18.80;99.90;;;;;;5095938;28;20039;-63
2021/06/03 00:11:57;;;;;;;1.05;0.73;;;18.80;99.90;;;;;;5108164;28;20069;-65
2021/06/03 00:14:24;;;;;;;1.00;0.75;;;18.60;99.90;;;;;;5100327;28;20047;-63
2021/06/03 00:16:50;;;;;;;0.73;0.73;;;18.60;99.90;;;;;;5108003;28;20717;-63
2021/06/03 00:19:16;;;;;;;0.65;0.65;;;18.70;99.90;;;;;;5108573;28;20039;-63
2021/06/03 00:21:44;;;;;;;0.60;0.60;;;18.70;99.90;;;;;;5108720;27;20477;-64
2021/06/03 00:24:10;;;;;;;0.98;0.60;;;18.70;99.90;;;;;;5108441;28;20080;-63
2021/06/03 00:26:37;;;;;;;1.40;1.00;;;18.70;99.90;;;;;;5108516;27;20023;-63
2021/06/03 00:29:04;;;;;;;0.70;0.70;;;18.70;99.90;;;;;;5108243;28;20110;-62
2021/06/03 00:31:31;;;;;;;0.80;0.80;;;18.80;99.90;;;;;;5108086;28;20232;-63
2021/06/03 00:33:56;;;;;;;0.77;0.75;;;18.90;99.90;;;;;;5107879;28;20024;-63
2021/06/03 00:36:22;;;;;;;1.02;0.70;;;18.70;99.90;;;;;;5108111;28;20388;-63
2021/06/03 00:38:48;;;;;;;0.80;0.80;;;18.80;99.90;;;;;;5108035;28;20574;-62
2021/06/03 00:41:15;;;;;;;0.60;0.60;;;18.80;99.90;;;;;;5108605;28;20024;-63
2021/06/03 00:43:41;;;;;;;1.15;0.52;;;18.80;99.90;;;;;;5108225;28;20032;-62
2021/06/03 00:46:07;;;;;;;0.60;0.60;;;18.80;99.90;;;;;;5107866;28;20042;-63
2021/06/03 00:48:33;;;;;;;0.57;0.57;;;18.70;99.90;;;;;;5107987;28;20024;-63
2021/06/03 00:51:01;;;;;;;1.50;0.80;;;18.80;99.90;;;;;;5107446;28;20031;-62
2021/06/03 00:53:27;;;;;;;1.15;0.82;;;18.70;99.90;;;;;;5107814;28;20096;-63
2021/06/03 00:55:56;;;;;;;0.98;0.77;;;18.60;99.90;;;;;;5107438;28;20107;-63
2021/06/03 00:58:23;;;;;;;0.88;0.77;;;18.60;99.90;;;;;;5107851;28;20341;-63
2021/06/03 01:00:51;;;;;;;1.02;0.90;;;18.60;99.90;;;;;;5107440;28;20373;-63
2021/06/03 01:03:18;;;;;;;1.80;0.98;;;18.50;99.90;;;;;;5094425;28;20114;-63
2021/06/03 01:05:56;;;;;;;1.90;1.20;;;18.60;99.90;;;;;;5087143;28;20116;-63
2021/06/03 01:08:25;;;;;;;1.88;1.60;;;18.50;99.90;;;;;;5087392;28;20397;-62
2021/06/03 01:11:03;;;;;;;1.55;1.10;;;18.50;99.90;;;;;;5086791;28;20020;-63
2021/06/03 01:13:57;;;;;;;2.75;1.50;;;18.40;99.90;;;;;;5087164;28;20097;-63
2021/06/03 01:16:25;;;;;;;4.77;2.47;;;18.40;99.90;;;;;;5077156;28;20059;-62
2021/06/03 01:18:52;;;;;;;1.75;1.42;;;18.50;99.90;;;;;;5086876;28;20258;-61
2021/06/03 01:21:31;;;;;;;2.25;1.30;;;18.50;99.90;;;;;;5087321;28;20028;-63
2021/06/03 01:24:09;;;;;;;2.25;1.70;;;18.60;99.90;;;;;;5086883;28;20116;-62
2021/06/03 01:26:35;;;;;;;1.52;1.42;;;18.40;99.90;;;;;;5086764;28;20039;-62
2021/06/03 01:29:03;;;;;;;1.38;1.27;;;18.40;99.90;;;;;;5086715;28;20598;-63
2021/06/03 01:31:29;;;;;;;1.98;1.40;;;18.40;99.90;;;;;;5086808;28;20115;-63
2021/06/03 01:33:55;;;;;;;1.30;1.20;;;18.50;99.90;;;;;;5086488;28;20024;-62
2021/06/03 01:36:21;;;;;;;2.25;1.40;;;18.40;99.90;;;;;;5086932;28;20101;-62
2021/06/03 01:38:47;;;;;;;1.40;1.13;;;18.40;99.90;;;;;;5086536;28;20020;-63
2021/06/03 01:41:13;;;;;;;1.15;1.08;;;18.50;99.90;;;;;;5087289;28;20090;-62
2021/06/03 01:43:42;;;;;;;1.10;1.00;;;18.40;99.90;;;;;;5086466;28;20020;-63
2021/06/03 01:46:08;;;;;;;1.10;1.00;;;18.40;99.90;;;;;;5086438;28;20062;-63
2021/06/03 01:48:35;;;;;;;2.70;1.00;;;18.40;99.90;;;;;;5086662;28;20418;-63
2021/06/03 01:51:05;;;;;;;1.45;1.17;;;18.40;99.90;;;;;;5086221;28;21090;-63
2021/06/03 01:53:32;;;;;;;1.25;1.00;;;18.40;99.90;;;;;;5086625;28;20028;-64
2021/06/03 01:56:07;;;;;;;1.48;0.98;;;18.50;99.90;;;;;;5086062;28;20043;-64
2021/06/03 01:58:33;;;;;;;1.27;1.13;;;18.50;99.90;;;;;;5086448;28;20025;-63
2021/06/03 02:00:59;;;;;;;1.10;1.00;;;18.50;99.90;;;;;;5085725;28;20043;-63
2021/06/03 02:03:26;;;;;;;1.33;0.82;;;18.50;99.90;;;;;;5099938;28;20098;-64
2021/06/03 02:05:53;;;;;;;2.13;1.00;;;18.40;99.90;;;;;;5106156;28;20450;-63
2021/06/03 02:08:19;;;;;;;1.48;1.35;;;18.40;99.90;;;;;;5106809;28;20043;-64
2021/06/03 02:10:46;;;;;;;1.27;0.98;;;18.30;99.90;;;;;;5106461;28;20028;-63
2021/06/03 02:13:19;;;;;;;1.10;0.80;;;18.50;99.90;;;;;;5107385;28;20039;-63
2021/06/03 02:15:57;;;;;;;0.98;0.95;;;18.50;99.90;;;;;;5106616;28;20047;-63
2021/06/03 02:18:52;;;;;;;2.08;0.70;;;18.40;99.90;;;;;;5106910;28;20389;-64
2021/06/03 02:21:18;;;;;;;3.03;0.80;;;18.50;99.90;;;;;;5106520;28;20126;-64
2021/06/03 02:23:46;;;;;;;0.52;0.52;;;18.60;99.90;;;;;;5107223;28;20096;-63
2021/06/03 02:26:13;;;;;;;0.75;0.75;;;18.60;99.90;;;;;;5107268;28;20031;-63
2021/06/03 02:28:40;;;;;;;0.60;0.60;;;18.50;99.90;;;;;;5108128;28;20016;-63
2021/06/03 02:31:06;;;;;;;0.98;0.80;;;18.70;99.90;;;;;;5110484;28;20507;-64
2021/06/03 02:33:32;;;;;;;0.60;0.60;;;18.70;99.90;;;;;;5110395;28;20028;-63
2021/06/03 02:35:59;;;;;;;0.85;0.50;;;18.70;99.90;;;;;;5110379;28;20101;-63
2021/06/03 02:38:27;;;;;;;0.55;0.55;;;18.70;99.90;;;;;;5109459;28;20377;-63
2021/06/03 02:40:57;;;;;;;0.55;0.55;;;18.80;99.90;;;;;;5110200;28;20023;-62
2021/06/03 02:43:22;;;;;;;0.70;0.70;;;18.70;99.90;;;;;;5110378;28;20020;-63
2021/06/03 02:45:48;;;;;;;0.60;0.60;;;18.80;99.90;;;;;;5110041;28;20724;-63
2021/06/03 02:48:14;;;;;;;0.60;0.60;;;18.80;99.90;;;;;;5110770;28;20512;-63
2021/06/03 02:50:41;;;;;;;0.80;0.80;;;18.80;99.90;;;;;;5110910;28;20020;-63
2021/06/03 02:53:07;;;;;;;0.50;0.50;;;18.60;99.90;;;;;;5109806;28;20020;-64
2021/06/03 02:55:33;;;;;;;0.60;0.60;;;18.70;99.90;;;;;;5110072;28;20476;-64
2021/06/03 02:57:59;;;;;;;1.00;0.68;;;18.70;99.90;;;;;;5109801;28;20019;-63
2021/06/03 03:00:31;;;;;;;0.77;0.60;;;18.70;99.90;;;;;;5110061;28;20532;-64
2021/06/03 03:02:58;;;;;;;0.65;0.57;;;18.70;99.90;;;;;;5099225;28;20033;-63
2021/06/03 03:05:24;;;;;;;0.60;0.60;;;18.70;99.90;;;;;;5089634;28;20028;-63
2021/06/03 03:07:50;;;;;;;0.68;0.68;;;18.70;99.90;;;;;;5089377;28;20070;-63
2021/06/03 03:10:28;;;;;;;0.70;0.70;;;18.70;99.90;;;;;;5089464;28;20107;-63
2021/06/03 03:12:55;;;;;;;2.25;0.70;;;18.70;99.90;;;;;;5088885;28;20035;-63
2021/06/03 03:15:21;;;;;;;0.70;0.70;;;18.70;99.90;;;;;;5100797;28;20027;-63
2021/06/03 03:17:47;;;;;;;0.77;0.63;;;18.70;99.90;;;;;;5109785;28;20576;-63
2021/06/03 03:20:15;;;;;;;0.50;0.50;;;18.70;99.90;;;;;;5110319;28;20035;-63
2021/06/03 03:22:41;;;;;;;0.60;0.60;;;18.70;99.90;;;;;;5109935;28;20027;-64
2021/06/03 03:25:10;;;;;;;0.60;0.60;;;18.60;99.90;;;;;;5109440;28;20020;-63
2021/06/03 03:27:45;;;;;;;0.77;0.77;;;18.60;99.90;;;;;;5109356;28;20027;-63
2021/06/03 03:30:12;;;;;;;0.85;0.85;;;18.50;99.90;;;;;;5108838;28;20427;-63
2021/06/03 03:32:38;;;;;;;0.60;0.60;;;18.60;99.90;;;;;;5109701;28;20019;-63
2021/06/03 03:35:06;;;;;;;0.60;0.60;;;18.80;99.90;;;;;;5109267;28;20378;-63
2021/06/03 03:37:32;;;;;;;0.70;0.70;;;18.80;99.90;;;;;;5109368;28;20021;-63
2021/06/03 03:39:58;;;;;;;1.65;0.63;;;18.70;99.90;;;;;;5107181;28;20046;-63
2021/06/03 03:42:24;;;;;;;0.60;0.60;;;18.80;99.90;;;;;;5109127;28;20027;-63
2021/06/03 03:44:50;;;;;;;0.73;0.70;;;18.80;99.90;;;;;;5108472;28;20020;-63
2021/06/03 03:47:17;;;;;;;1.02;0.68;;;18.80;99.90;;;;;;5109148;27;20115;-63
2021/06/03 03:49:43;;;;;;;0.85;0.85;;;18.80;99.90;;;;;;5109351;28;20015;-64
2021/06/03 03:52:09;;;;;;;0.60;0.60;;;18.70;99.90;;;;;;5108655;28;20071;-64
2021/06/03 03:54:34;;;;;;;1.77;0.60;;;18.70;99.90;;;;;;5108162;28;20070;-65
2021/06/03 03:57:00;;;;;;;0.63;0.63;;;18.70;99.90;;;;;;5107887;28;20031;-65
2021/06/03 03:59:26;;;;;;;0.80;0.80;;;18.60;99.90;;;;;;5108569;28;20031;-64
2021/06/03 04:01:54;;;;;;;0.63;0.63;;;18.50;99.90;;;;;;5108336;28;20024;-63
2021/06/03 04:04:23;;;;;;;0.60;0.60;;;18.50;99.90;;;;;;5108799;27;20097;-63
2021/06/03 04:06:50;;;;;;;0.60;0.60;;;18.60;99.90;;;;;;5108494;28;20020;-63
2021/06/03 04:09:17;;;;;;;0.68;0.68;;;18.50;99.90;;;;;;5108792;28;20126;-63
2021/06/03 04:11:43;;;;;;;1.17;0.73;;;18.40;99.90;;;;;;5109061;28;20019;-62
2021/06/03 04:14:09;;;;;;;0.60;0.60;;;18.40;99.90;;;;;;5106954;28;20718;-63
2021/06/03 04:16:35;;;;;;;0.85;0.70;;;18.40;99.90;;;;;;5104545;28;20324;-63
2021/06/03 04:19:01;;;;;;;1.13;0.70;;;18.40;99.90;;;;;;5108417;28;20796;-62
2021/06/03 04:21:27;;;;;;;1.05;0.70;;;18.30;99.90;;;;;;5108230;28;20042;-63
2021/06/03 04:23:52;;;;;;;0.88;0.68;;;18.30;99.90;;;;;;5101129;28;20500;-63
2021/06/03 04:26:18;;;;;;;0.82;0.70;;;18.30;99.90;;;;;;5097740;28;20435;-63
2021/06/03 04:28:45;;;;;;;1.85;0.90;;;18.40;99.90;;;;;;5107911;28;20020;-63
2021/06/03 04:31:11;;;;;;;0.68;0.68;;;18.40;99.90;;;;;;5109214;28;20438;-63
2021/06/03 04:33:36;;;;;;;0.88;0.70;;;18.20;99.90;;;;;;5108353;28;20023;-63
2021/06/03 04:36:04;;;;;;;1.02;0.70;;;18.20;99.90;;;;;;5106339;28;20114;-63
2021/06/03 04:38:30;;;;;;;1.27;1.10;;;18.10;99.90;;;;;;5107936;28;20031;-63
2021/06/03 04:40:55;;;;;;;1.25;0.60;;;18.00;99.90;;;;;;5107947;28;20392;-63
2021/06/03 04:43:21;;;;;;;0.77;0.70;;;18.00;99.90;;;;;;5107757;28;20496;-62
2021/06/03 04:45:47;;;;;;;0.85;0.82;;;18.00;99.90;;;;;;5092575;28;20032;-62
2021/06/03 04:48:13;;;;;;;0.57;0.57;;;17.90;99.90;;;;;;5088287;28;20423;-63
2021/06/03 04:50:39;;;;;;;0.68;0.68;;;17.90;99.90;;;;;;5087118;28;20028;-63
2021/06/03 04:53:06;;;;;;;0.80;0.80;;;18.00;99.90;;;;;;5086945;28;20032;-63
2021/06/03 04:55:32;;;;;;;0.82;0.77;;;18.00;99.90;;;;;;5087251;28;20038;-62
2021/06/03 04:57:58;;;;;;;0.85;0.80;;;17.90;99.90;;;;;;5085656;28;20046;-63
2021/06/03 05:00:26;;;;;;;0.60;0.60;;;18.00;99.90;;;;;;5089444;28;21044;-62
2021/06/03 05:02:53;;;;;;;0.63;0.60;;;18.00;99.90;;;;;;5098672;28;20055;-63
2021/06/03 05:05:21;;;;;;;0.70;0.70;;;17.90;99.90;;;;;;5088281;28;20032;-63
2021/06/03 05:07:47;;;;;;;0.70;0.70;;;17.80;99.90;;;;;;5094378;28;20509;-60
2021/06/03 05:10:14;;;;;;;1.85;0.80;;;17.90;99.90;;;;;;5087879;28;20043;-61
2021/06/03 05:12:40;;;;;;;0.70;0.70;;;18.00;99.90;;;;;;5087284;28;20078;-61
2021/06/03 05:15:07;;;;;;;0.70;0.70;;;17.90;99.90;;;;;;5087122;28;20028;-61
2021/06/03 05:17:35;;;;;;;0.73;0.73;;;17.90;99.90;;;;;;5093369;28;20063;-60
2021/06/03 05:20:03;;;;;;;0.82;0.82;;;17.90;99.90;;;;;;5094095;28;20626;-61
2021/06/03 05:22:29;;;;;;;0.80;0.57;;;18.00;99.90;;;;;;5094885;28;20127;-61
2021/06/03 05:24:55;;;;;;;0.70;0.70;;;18.10;99.90;;;;;;5104308;28;20115;-61
2021/06/03 05:27:22;;;;;;;0.85;0.85;;;18.00;99.90;;;;;;5089626;28;20106;-61
2021/06/03 05:29:49;;;;;;;0.60;0.60;;;17.80;99.90;;;;;;5085684;28;20035;-61
2021/06/03 05:32:15;;;;;;;0.60;0.60;;;17.80;99.90;;;;;;5085875;28;20516;-61
2021/06/03 05:34:40;;;;;;;0.90;0.60;;;17.80;99.90;;;;;;5085533;28;20032;-61
2021/06/03 05:37:06;;;;;;;1.45;0.73;;;17.80;99.90;;;;;;5085397;28;20028;-61
2021/06/03 05:39:33;;;;;;;1.15;0.80;;;17.70;99.90;;;;;;5101672;28;20699;-61
2021/06/03 05:42:01;;;;;;;0.82;0.77;;;17.90;99.90;;;;;;5105008;28;20024;-61
2021/06/03 05:44:27;;;;;;;0.70;0.60;;;17.90;99.90;;;;;;5104395;28;20024;-61
2021/06/03 05:46:53;;;;;;;0.75;0.75;;;17.90;99.90;;;;;;5104869;28;20088;-61
2021/06/03 05:49:18;;;;;;;0.85;0.80;;;17.90;99.90;;;;;;5105426;28;20024;-61
2021/06/03 05:51:45;;;;;;;0.80;0.80;;;17.80;99.90;;;;;;5105456;28;20043;-63
2021/06/03 05:54:11;;;;;;;0.65;0.65;;;17.90;99.90;;;;;;5105830;28;20031;-61
2021/06/03 05:56:38;;;;;;;0.73;0.70;;;18.10;99.90;;;;;;5103763;28;20024;-61
2021/06/03 05:59:05;;;;;;;1.00;0.95;;;18.10;99.90;;;;;;5105310;28;20386;-61
2021/06/03 06:01:31;;;;;;;0.52;0.52;;;18.10;99.90;;;;;;5100064;28;20370;-61
2021/06/03 06:06:25;;;;;;;0.65;0.60;;;18.50;99.90;;;;;;5111158;28;20024;-62
2021/06/03 06:08:53;;;;;;;0.45;0.45;;;18.70;99.90;;;;;;5091024;28;20063;-62
2021/06/03 06:11:20;;;;;;;0.50;0.50;;;18.80;99.90;;;;;;5090543;28;20016;-61
2021/06/03 06:13:46;;;;;;;0.47;0.40;;;18.90;99.90;;;;;;5090194;28;20052;-62
2021/06/03 06:16:13;;;;;;;0.50;0.50;;;19.00;99.90;;;;;;5109756;28;20036;-62
2021/06/03 06:18:40;;;;;;;0.57;0.50;;;19.10;99.90;;;;;;5110957;28;20077;-61
2021/06/03 06:21:07;;;;;;;0.75;0.65;;;19.10;99.90;;;;;;5090448;28;20032;-61
2021/06/03 06:23:34;;;;;;;0.40;0.40;;;19.10;99.90;;;;;;5090170;28;20485;-62
2021/06/03 06:26:01;;;;;;;0.50;0.50;;;19.20;99.90;;;;;;5089494;28;20037;-61
2021/06/03 06:28:27;;;;;;;0.52;0.50;;;19.30;99.90;;;;;;5090179;28;20347;-61
2021/06/03 06:30:53;;;;;;;1.10;0.50;;;19.40;99.90;;;;;;5088280;28;20264;-61
2021/06/03 06:33:19;;;;;;;0.75;0.60;;;19.30;99.90;;;;;;5090378;28;20032;-61
2021/06/03 06:35:49;;;;;;;0.30;0.30;;;19.40;99.90;;;;;;5088204;28;20024;-61
2021/06/03 06:38:19;;;;;;;0.40;0.40;;;19.50;99.90;;;;;;5090013;28;20031;-61
2021/06/03 06:40:45;;;;;;;0.40;0.40;;;19.60;99.90;;;;;;5089887;28;20070;-61
2021/06/03 06:43:11;;;;;;;0.85;0.60;;;19.70;99.90;;;;;;5089993;28;20095;-61
2021/06/03 06:45:38;;;;;;;0.43;0.43;;;19.80;99.90;;;;;;5089656;28;20119;-61
2021/06/03 06:48:06;;;;;;;0.47;0.47;;;19.70;99.90;;;;;;5089092;28;20028;-61
2021/06/03 06:50:32;;;;;;;0.50;0.50;;;19.60;99.90;;;;;;5089999;28;20020;-61
2021/06/03 06:52:58;;;;;;;0.70;0.70;;;19.60;99.90;;;;;;5089712;28;20514;-62
2021/06/03 06:55:23;;;;;;;1.45;0.65;;;19.50;99.90;;;;;;5091121;28;20022;-61
2021/06/03 06:57:54;;;;;;;0.70;0.60;;;19.50;99.90;;;;;;5110114;28;20501;-62
2021/06/03 07:00:22;;;;;;;0.50;0.45;;;19.60;99.90;;;;;;5108999;28;20031;-62
2021/06/03 07:02:48;;;;;;;0.65;0.40;;;19.90;99.90;;;;;;5109999;28;20030;-62
2021/06/03 07:05:15;;;;;;;0.38;0.38;;;19.90;99.90;;;;;;5110124;28;20076;-61
2021/06/03 07:07:40;;;;;;;0.95;0.50;;;19.80;99.90;;;;;;5108825;28;20043;-61
2021/06/03 07:10:07;;;;;;;0.40;0.40;;;19.80;99.90;;;;;;5109892;28;20512;-61
2021/06/03 07:12:34;;;;;;;1.08;0.50;;;19.80;99.90;;;;;;5109666;28;20640;-61
2021/06/03 07:15:00;;;;;;;0.73;0.40;;;19.70;99.90;;;;;;5109321;28;20024;-62
2021/06/03 07:17:26;;;;;;;0.65;0.47;;;19.80;99.90;;;;;;5110336;28;20496;-62
2021/06/03 07:19:52;;;;;;;0.40;0.40;;;19.80;99.90;;;;;;5109337;28;20030;-63
2021/06/03 07:22:18;;;;;;;0.50;0.50;;;20.00;99.90;;;;;;5109427;28;20024;-62
2021/06/03 07:24:45;;;;;;;0.65;0.50;;;20.00;99.90;;;;;;5109066;28;20193;-62
2021/06/03 07:27:11;;;;;;;0.60;0.60;;;20.00;99.90;;;;;;5109432;28;20035;-62
2021/06/03 07:29:37;;;;;;;0.50;0.45;;;19.80;99.90;;;;;;5113471;27;20098;-62
2021/06/03 07:32:04;;;;;;;0.52;0.52;;;19.90;99.90;;;;;;5109342;28;20036;-63
2021/06/03 07:34:30;;;;;;;1.25;0.50;;;19.90;99.90;;;;;;5110097;28;20123;-62
2021/06/03 07:36:55;;;;;;;0.45;0.40;;;20.00;99.90;;;;;;5109022;28;20508;-62
2021/06/03 07:39:22;;;;;;;0.45;0.45;;;20.10;99.90;;;;;;5109286;28;20036;-62
2021/06/03 07:41:49;;;;;;;0.75;0.60;;;20.10;99.90;;;;;;5108609;28;20053;-62
2021/06/03 07:44:14;;;;;;;0.98;0.50;;;20.20;99.90;;;;;;5108336;28;20046;-62
2021/06/03 07:46:40;;;;;;;1.20;0.63;;;20.10;99.90;;;;;;5105557;28;20392;-63
2021/06/03 07:49:07;;;;;;;0.60;0.60;;;20.00;99.90;;;;;;5095110;28;20024;-62
2021/06/03 07:51:33;;;;;;;1.10;0.73;;;20.10;99.90;;;;;;5107041;27;20031;-63
2021/06/03 07:53:59;;;;;;;0.63;0.60;;;20.10;99.90;;;;;;5095394;28;20024;-62
2021/06/03 07:56:24;;;;;;;0.60;0.60;;;20.20;99.90;;;;;;5086868;28;20551;-62
2021/06/03 07:58:50;;;;;;;1.58;0.90;;;20.20;99.90;;;;;;5086873;28;20032;-62
2021/06/03 08:01:16;;;;;;;1.85;0.95;;;20.20;99.90;;;;;;5090482;28;20035;-62
2021/06/03 08:03:42;;;;;;;1.05;0.95;;;20.20;99.90;;;;;;5100301;28;20035;-62
2021/06/03 08:06:09;;;;;;;0.63;0.63;;;20.20;99.90;;;;;;5101970;28;20031;-62
2021/06/03 08:08:37;;;;;;;0.50;0.50;;;20.30;99.90;;;;;;5103265;28;20106;-62
2021/06/03 08:11:04;;;;;;;0.75;0.60;;;20.40;99.90;;;;;;5087487;28;20020;-62
2021/06/03 08:13:30;;;;;;;0.55;0.55;;;20.50;99.90;;;;;;5090808;28;20501;-62
2021/06/03 08:15:57;;;;;;;0.82;0.55;;;20.50;99.90;;;;;;5111481;27;20022;-62
2021/06/03 08:18:23;;;;;;;0.50;0.50;;;20.50;99.90;;;;;;5125707;27;20135;-62
2021/06/03 08:20:56;;;;;;;0.50;0.50;;;20.50;99.90;;;;;;5119066;27;20023;-62
2021/06/03 08:23:24;;;;;;;0.50;0.50;;;20.60;99.90;;;;;;5108510;27;20023;-62
2021/06/03 08:25:50;;;;;;;0.57;0.40;;;20.60;99.90;;;;;;5106716;28;20035;-62
2021/06/03 08:28:16;;;;;;;0.50;0.50;;;20.60;99.90;;;;;;5102344;28;20027;-62
2021/06/03 08:30:44;;;;;;;0.60;0.60;;;20.60;99.90;;;;;;5097393;28;20084;-62
2021/06/03 08:33:10;;;;;;;0.60;0.60;;;20.60;99.90;;;;;;5087211;28;20066;-62
2021/06/03 08:35:37;;;;;;;0.75;0.75;;;20.80;99.90;;;;;;5086460;28;20020;-62
2021/06/03 08:38:05;;;;;;;0.50;0.50;;;20.70;99.90;;;;;;5086715;28;20568;-62
2021/06/03 08:40:33;;;;;;;0.60;0.60;;;20.80;99.90;;;;;;5093673;28;20044;-62
2021/06/03 08:43:02;;;;;;;0.50;0.50;;;20.70;99.90;;;;;;5105477;28;20699;-62
2021/06/03 08:45:31;;;;;;;0.50;0.50;;;20.90;99.90;;;;;;5106361;28;20027;-62
2021/06/03 08:47:57;;;;;;;0.50;0.50;;;20.90;99.90;;;;;;5106703;28;20034;-62
2021/06/03 08:50:26;;;;;;;0.60;0.60;;;21.00;99.90;;;;;;5105875;28;20087;-62
2021/06/03 08:52:53;;;;;;;0.60;0.60;;;21.00;99.90;;;;;;5106095;28;20059;-62
2021/06/03 08:58:09;;;;;;;0.57;0.55;;;20.90;99.90;;;;;;5086688;28;20429;-62
2021/06/03 09:00:36;;;;;;;1.30;0.80;;;21.10;99.90;;;;;;5086180;28;20241;-62
2021/06/03 09:03:03;;;;;;;1.27;0.70;;;21.10;99.90;;;;;;5086395;28;20032;-62
2021/06/03 09:05:29;;;;;;;1.52;0.70;;;21.00;99.90;;;;;;5085538;28;20028;-62
2021/06/03 09:07:55;;;;;;;1.33;0.98;;;21.10;99.90;;;;;;5086341;28;20043;-62
2021/06/03 09:10:38;;;;;;;0.77;0.70;;;21.20;99.90;;;;;;5086469;28;20517;-62
2021/06/03 09:13:21;;;;;;;0.70;0.70;;;21.30;99.90;;;;;;5086491;28;20039;-61
2021/06/03 09:15:51;;;;;;;1.30;0.90;;;21.40;99.90;;;;;;5086637;28;20012;-62
2021/06/03 09:18:37;;;;;;;1.63;0.77;;;21.50;99.90;;;;;;5094942;28;20039;-62
2021/06/03 09:21:19;;;;;;;0.68;0.68;;;21.50;99.90;;;;;;5106534;28;20015;-62
2021/06/03 09:23:56;;;;;;;1.25;0.90;;;21.50;99.90;;;;;;5090283;28;20031;-62
2021/06/03 09:26:24;;;;;;;0.95;0.70;;;21.50;99.90;;;;;;5087395;28;20024;-62
2021/06/03 09:28:52;;;;;;;0.75;0.75;;;21.50;99.90;;;;;;5086622;28;20036;-62
2021/06/03 09:31:21;;;;;;;1.65;0.90;;;21.50;99.90;;;;;;5086257;28;20025;-62
2021/06/03 09:33:58;;;;;;;1.48;1.05;;;21.50;99.90;;;;;;5090034;28;20406;-62
2021/06/03 09:36:32;;;;;;;1.25;1.10;;;21.60;99.90;;;;;;5103886;28;20508;-62
2021/06/03 09:39:11;;;;;;;;;;;21.70;99.90;;;;;;5100490;28;20409;-63
2021/06/03 09:42:00;;;;;;;1.20;1.10;;;21.90;99.90;;;;;;5085516;28;19903;-63
2021/06/03 09:44:31;;;;;;;1.83;1.10;;;21.80;99.90;;;;;;5085565;28;20394;-62
2021/06/03 09:47:06;;;;;;;1.23;1.00;;;21.80;99.90;;;;;;5084327;28;20035;-62
2021/06/03 09:49:46;;;;;;;1.00;0.90;;;21.90;99.90;;;;;;5103198;27;20027;-60
2021/06/03 09:52:15;;;;;;;0.88;0.80;;;21.90;99.90;;;;;;5086499;28;20067;-61
2021/06/03 09:54:46;;;;;;;1.48;0.93;;;21.90;99.90;;;;;;5082666;28;20086;-59
2021/06/03 09:57:13;;;;;;;1.08;0.98;;;22.10;99.90;;;;;;5083193;28;20024;-60
2021/06/03 09:59:43;;;;;;;0.80;0.80;;;22.00;99.90;;;;;;5083460;28;20020;-60
2021/06/03 10:02:20;;;;;;;1.35;1.20;;;22.10;99.90;;;;;;5083038;28;20056;-60
2021/06/03 10:04:53;;;;;;;0.82;0.70;;;22.20;99.90;;;;;;5088761;28;20466;-60
2021/06/03 10:07:29;;;;;;;1.33;0.70;;;22.30;99.90;;;;;;5105044;28;20028;-60
2021/06/03 10:10:06;;;;;;;1.08;0.70;;;22.30;99.90;;;;;;5103766;28;20597;-60
2021/06/03 10:12:38;;;;;;;1.25;0.90;;;22.40;99.90;;;;;;5095810;28;20410;-60
2021/06/03 10:15:07;;;;;;;2.83;0.68;;;22.60;99.90;;;;;;5083177;28;20524;-60
2021/06/03 10:17:37;;;;;;;0.70;0.70;;;22.70;99.90;;;;;;5083511;28;20032;-60
2021/06/03 10:20:12;;;;;;;1.17;0.80;;;22.60;99.90;;;;;;5083449;28;20491;-60
2021/06/03 10:22:41;;;;;;;0.80;0.80;;;22.70;99.90;;;;;;5084160;28;20048;-60
2021/06/03 10:25:10;;;;;;;1.30;1.00;;;22.60;99.90;;;;;;5083153;28;20024;-60
2021/06/03 10:27:53;;;;;;;0.80;0.80;;;22.70;99.90;;;;;;5082180;28;20119;-60
2021/06/03 10:30:41;;;;;;;2.83;1.00;;;22.90;99.90;;;;;;5084813;28;20024;-60
2021/06/03 10:33:39;;;;;;;1.58;0.93;;;22.90;99.90;;;;;;5082957;28;20551;-60
2021/06/03 10:36:08;;;;;;;1.88;1.00;;;22.80;99.90;;;;;;5083119;28;20413;-60
2021/06/03 10:38:35;;;;;;;1.80;1.00;;;22.80;99.90;;;;;;5099960;28;20426;-59
2021/06/03 10:41:04;;;;;;;1.42;1.13;;;22.90;99.90;;;;;;5103580;28;20019;-60
2021/06/03 10:43:35;;;;;;;1.23;1.13;;;22.90;99.90;;;;;;5102256;28;20401;-60
2021/06/03 10:46:01;;;;;;;2.92;1.35;;;23.10;99.90;;;;;;5101915;28;20111;-59
2021/06/03 10:48:26;;;;;;;6.95;1.27;;;23.10;99.90;;;;;;5094755;28;20624;-60
2021/06/03 10:50:55;;;;;;;1.50;1.30;;;23.00;99.90;;;;;;5082472;28;20024;-60
2021/06/03 10:53:27;;;;;;;1.20;1.10;;;23.10;99.90;;;;;;5081899;28;20058;-60
2021/06/03 10:55:55;;;;;;;1.33;1.23;;;23.20;99.90;;;;;;5080866;28;20056;-60
2021/06/03 10:58:36;;;;;;;1.38;1.20;;;23.20;99.90;;;;;;5082944;28;20103;-60
2021/06/03 11:01:16;;;;;;;2.10;1.17;;;23.30;99.90;;;;;;5069681;28;20028;-56
2021/06/03 11:03:49;;;;;;;1.27;1.05;;;23.40;99.90;;;;;;5069105;28;20657;-56
2021/06/03 11:06:20;;;;;;;2.45;1.38;;;23.30;99.90;;;;;;5083466;28;20423;-55
2021/06/03 11:08:48;;;;;;;1.45;1.10;;;23.40;99.90;;;;;;5072882;28;20047;-57
2021/06/03 11:11:14;;;;;;;2.35;1.20;;;23.70;99.90;;;;;;5088121;28;20024;-57
2021/06/03 11:13:48;;;;;;;1.73;1.23;;;23.70;99.90;;;;;;5087399;28;20053;-56
2021/06/03 11:16:17;;;;;;;1.27;1.08;;;23.70;99.90;;;;;;5087810;28;20529;-57
2021/06/03 11:19:02;;;;;;;1.17;1.00;;;23.60;99.90;;;;;;5087623;28;20031;-57
2021/06/03 11:21:34;;;;;;;1.13;0.90;;;23.90;99.90;;;;;;5106513;28;20358;-57
2021/06/03 11:24:04;;;;;;;1.60;1.27;;;24.00;99.90;;;;;;5106996;28;20019;-57
2021/06/03 11:29:25;;;;;;;1.77;1.20;;;23.80;99.90;;;;;;5089338;28;20124;-57
2021/06/03 11:32:03;;;;;;;1.95;1.25;;;23.80;99.90;;;;;;5107046;28;20042;-58
2021/06/03 11:34:49;;;;;;;1.73;1.20;;;23.70;99.90;;;;;;5107780;28;20028;-58
2021/06/03 11:37:16;;;;;;;2.15;1.25;;;23.80;99.90;;;;;;5107997;28;20016;-57
2021/06/03 11:39:44;;;;;;;2.97;1.10;;;23.90;99.90;;;;;;5107414;28;20031;-57
2021/06/03 11:42:28;;;;;;;2.05;1.10;;;24.00;99.90;;;;;;5108003;28;20031;-57
2021/06/03 11:45:10;;;;;;;1.67;1.17;;;24.00;99.90;;;;;;5101228;28;20111;-57
2021/06/03 11:47:42;;;;;;;2.25;1.25;;;24.20;99.90;;;;;;5072583;28;20028;-57
2021/06/03 11:50:17;;;;;;;1.15;1.05;;;24.30;99.90;;;;;;5088322;28;20111;-57
2021/06/03 11:53:01;;;;;;;1.10;1.00;;;24.60;99.90;;;;;;5087715;28;20107;-57
2021/06/03 11:55:36;;;;;;;;;;;24.80;99.90;;;;;;5088493;28;20542;-57
2021/06/03 11:58:20;;;;;;;;;;;25.20;99.90;;;;;;5085448;28;20447;-57
2021/06/03 12:00:57;;;;;;;2.00;1.10;;;25.40;99.90;;;;;;5086282;28;20374;-58
2021/06/03 12:03:28;;;;;;;1.25;1.00;;;25.50;99.90;;;;;;5086350;28;20504;-58
2021/06/03 12:06:00;;;;;;;0.80;0.80;;;25.90;99.90;;;;;;5086505;28;20339;-57
2021/06/03 12:08:44;;;;;;;1.10;0.88;;;25.90;99.90;;;;;;5085870;28;20099;-57
2021/06/03 12:11:27;;;;;;;1.77;0.95;;;26.00;99.90;;;;;;5085909;28;20027;-56
2021/06/03 12:14:09;;;;;;;1.13;1.02;;;26.20;99.90;;;;;;5085624;28;20088;-57
2021/06/03 12:16:39;;;;;;;1.20;1.02;;;26.30;99.90;;;;;;5083924;28;20028;-57
2021/06/03 12:19:10;;;;;;;1.13;0.82;;;26.40;99.90;;;;;;5085006;28;20055;-57
2021/06/03 12:21:36;;;;;;;1.77;0.90;;;26.60;99.90;;;;;;5086287;28;20115;-58
2021/06/03 12:24:01;;;;;;;0.95;0.77;;;26.50;99.90;;;;;;5085608;28;20107;-57
2021/06/03 12:26:27;;;;;;;0.70;0.70;;;26.80;99.90;;;;;;5086063;28;20084;-58
2021/06/03 12:28:53;;;;;;;0.80;0.80;;;27.00;99.90;;;;;;5085560;28;20084;-57
2021/06/03 12:31:25;;;;;;;1.10;0.93;;;27.10;99.90;;;;;;5085934;28;20117;-58
2021/06/03 12:33:51;;;;;;;1.20;0.70;;;27.20;99.90;;;;;;5084973;28;20020;-58
2021/06/03 12:36:18;;;;;;;0.95;0.82;;;27.20;99.90;;;;;;5085683;28;20028;-58
2021/06/03 12:38:50;;;;;;;0.80;0.80;;;27.00;99.90;;;;;;5085774;28;20451;-58
2021/06/03 12:41:29;;;;;;;3.08;1.02;;;27.40;99.90;;;;;;5085136;28;20032;-58
2021/06/03 12:44:11;;;;;;;1.13;1.00;;;27.30;99.90;;;;;;5086021;28;20472;-58
2021/06/03 12:46:45;;;;;;;2.75;1.30;;;27.60;99.90;;;;;;5082565;28;20505;-58
2021/06/03 12:49:19;;;;;;;0.80;0.77;;;27.70;99.90;;;;;;5086391;28;20039;-59
2021/06/03 12:52:11;;;;;;;1.33;0.90;;;27.80;99.90;;;;;;5085336;28;21091;-58
2021/06/03 12:54:44;;;;;;;0.82;0.82;;;27.60;99.90;;;;;;5086759;28;20024;-58
2021/06/03 12:57:19;;;;;;;0.70;0.70;;;27.70;99.90;;;;;;5086058;28;20516;-58
2021/06/03 12:59:50;;;;;;;0.80;0.73;;;27.90;99.90;;;;;;5086302;28;20125;-58
2021/06/03 13:02:16;;;;;;;1.58;1.00;;;28.00;99.90;;;;;;5085742;28;20032;-58
2021/06/03 13:04:51;;;;;;;0.70;0.70;;;28.00;99.90;;;;;;5086123;28;20062;-58
2021/06/03 13:07:36;;;;;;;0.70;0.70;;;28.20;99.90;;;;;;5085654;28;20032;-58